createdAt,value
2022-12-22T00:00:09.893Z,2.60
2022-12-22T00:02:54.994Z,2.64
2022-12-22T00:05:41.465Z,2.63
2022-12-22T00:08:27.122Z,2.58
2022-12-22T00:11:12.620Z,2.63
2022-12-22T00:13:59.144Z,2.62
2022-12-22T00:16:53.087Z,2.49
2022-12-22T00:19:38.322Z,2.54
2022-12-22T00:22:32.781Z,2.42
2022-12-22T00:25:18.262Z,2.45
2022-12-22T00:28:03.641Z,2.40
2022-12-22T00:30:48.808Z,2.45
2022-12-22T00:33:34.795Z,2.41
2022-12-22T00:36:21.598Z,2.44
2022-12-22T00:39:06.982Z,2.41
2022-12-22T00:41:52.284Z,2.34
2022-12-22T00:44:37.441Z,2.32
2022-12-22T00:47:22.693Z,2.37
2022-12-22T00:50:07.999Z,2.36
2022-12-22T00:52:53.619Z,2.44
2022-12-22T00:55:48.332Z,2.48
2022-12-22T00:58:35.239Z,2.54
2022-12-22T01:01:20.443Z,2.38
2022-12-22T01:04:05.536Z,2.60
2022-12-22T01:06:51.306Z,2.66
2022-12-22T01:09:36.448Z,2.71
2022-12-22T01:12:49.016Z,2.73
2022-12-22T01:15:36.257Z,2.67
2022-12-22T01:18:22.075Z,2.78
2022-12-22T01:21:08.768Z,2.67
2022-12-22T01:23:53.980Z,2.75
2022-12-22T01:26:39.282Z,2.45
2022-12-22T01:29:24.573Z,2.71
2022-12-22T01:32:09.936Z,2.71
2022-12-22T01:34:56.628Z,2.71
2022-12-22T01:37:41.823Z,2.74
2022-12-22T01:40:38.128Z,2.71
2022-12-22T01:43:49.604Z,2.77
2022-12-22T01:46:48.789Z,2.67
2022-12-22T01:49:59.871Z,2.82
2022-12-22T01:52:49.019Z,2.77
2022-12-22T01:55:36.315Z,2.77
2022-12-22T01:58:21.559Z,2.80
2022-12-22T02:01:06.891Z,2.73
2022-12-22T02:03:52.397Z,2.72
2022-12-22T02:06:40.681Z,2.84
2022-12-22T02:09:31.695Z,2.84
2022-12-22T02:12:24.516Z,2.68
2022-12-22T02:15:24.798Z,2.66
2022-12-22T02:18:26.434Z,2.58
2022-12-22T02:21:12.660Z,2.50
2022-12-22T02:24:16.736Z,2.41
2022-12-22T02:27:09.027Z,2.23
2022-12-22T02:30:20.341Z,2.25
2022-12-22T02:33:09.967Z,2.22
2022-12-22T02:36:47.916Z,2.33
2022-12-22T02:39:57.664Z,2.29
2022-12-22T02:42:52.394Z,2.26
2022-12-22T02:45:56.375Z,2.28
2022-12-22T02:48:46.332Z,2.39
2022-12-22T02:51:40.154Z,2.47
2022-12-22T02:54:25.494Z,2.56
2022-12-22T02:57:10.635Z,2.60
2022-12-22T02:59:55.734Z,2.57
2022-12-22T03:02:41.223Z,2.77
2022-12-22T03:05:26.524Z,2.80
2022-12-22T03:08:12.800Z,2.79
2022-12-22T03:10:58.076Z,2.76
2022-12-22T03:13:43.488Z,2.80
2022-12-22T03:16:28.801Z,2.68
2022-12-22T03:19:14.236Z,2.63
2022-12-22T03:21:59.434Z,2.45
2022-12-22T03:24:44.589Z,2.32
2022-12-22T03:27:11.516Z,2.10
2022-12-22T03:29:38.353Z,1.99
2022-12-22T03:32:05.222Z,1.75
2022-12-22T03:34:32.115Z,1.78
2022-12-22T03:36:58.955Z,1.63
2022-12-22T03:39:25.756Z,1.62
2022-12-22T03:42:10.858Z,1.47
2022-12-22T03:44:56.122Z,1.52
2022-12-22T03:47:22.936Z,1.41
2022-12-22T03:49:49.797Z,1.41
2022-12-22T03:52:16.619Z,1.28
2022-12-22T03:54:43.431Z,1.40
2022-12-22T03:57:10.279Z,1.24
2022-12-22T03:59:37.118Z,1.34
2022-12-22T04:02:04.142Z,1.50
2022-12-22T04:04:31.190Z,1.57
2022-12-22T04:06:58.095Z,1.61
2022-12-22T04:09:27.279Z,1.62
2022-12-22T04:12:13.063Z,1.78
2022-12-22T04:14:39.969Z,1.78
2022-12-22T04:17:07.075Z,1.72
2022-12-22T04:19:33.961Z,1.86
2022-12-22T04:22:00.931Z,1.87
